| time (UTC) | temp C | wind direction | speed KPH | gust KPH | rain 1hr cm | rain 24hr cm | rain mn cm | humidity % | barometer mb |
| 20260505080054 | 13 | 98 | 0.0 | 0.0 | 0.00 | 0.00 | 0.00 | 62 | 1014.4 |
| 20260505074547 | 13 | 98 | 0.0 | 0.0 | 0.00 | 0.00 | 0.00 | 64 | 1014.3 |
| 20260505073034 | 14 | 98 | 0.0 | 0.0 | 0.00 | 0.00 | 0.00 | 67 | 1014.3 |
| 20260505071525 | 14 | 98 | 0.0 | 0.0 | 0.00 | 0.00 | 0.00 | 68 | 1014.1 |
| 20260505070023 | 15 | 98 | 0.0 | 0.0 | 0.00 | 0.00 | 0.00 | 69 | 1014.1 |
| 20260505064520 | 15 | 98 | 0.0 | 0.0 | 0.00 | 0.00 | 0.00 | 70 | 1014.1 |
| 20260505063018 | 15 | 98 | 0.0 | 0.0 | 0.00 | 0.00 | 0.00 | 70 | 1014.1 |
| 20260505061518 | 16 | 98 | 0.0 | 0.0 | 0.00 | 0.00 | 0.00 | 70 | 1014.1 |
| 20260505060017 | 16 | 98 | 0.0 | 0.0 | 0.00 | 0.00 | 0.00 | 70 | 1014.1 |
| 20260505054515 | 16 | 98 | 0.0 | 0.0 | 0.00 | 0.00 | 0.00 | 70 | 1014.0 |
| 20260505053106 | 17 | 98 | 0.0 | 0.0 | 0.00 | 0.00 | 0.00 | 69 | 1014.0 |
| 20260505051558 | 17 | 98 | 0.0 | 0.0 | 0.00 | 0.00 | 0.00 | 69 | 1014.2 |
| 20260505050125 | 17 | 98 | 0.0 | 0.0 | 0.00 | 0.00 | 0.00 | 68 | 1014.2 |
| 20260505041603 | 18 | 101 | 0.0 | 0.0 | 0.00 | 0.00 | 0.00 | 67 | 1014.2 |
| 20260505040056 | 18 | 100 | 0.0 | 0.0 | 0.00 | 0.00 | 0.00 | 66 | 1014.2 |
| 20260505034547 | 18 | 101 | 0.0 | 0.0 | 0.00 | 0.00 | 0.00 | 64 | 1014.2 |
| 20260505033028 | 18 | 70 | 0.0 | 0.0 | 0.00 | 0.00 | 0.00 | 63 | 1014.3 |
| 20260505031526 | 18 | 62 | 0.0 | 0.0 | 0.00 | 0.00 | 0.00 | 60 | 1014.2 |
| 20260505030009 | 19 | 106 | 0.0 | 0.0 | 0.00 | 0.00 | 0.00 | 58 | 1014.2 |
| 20260505024505 | 19 | 181 | 0.0 | 0.0 | 0.00 | 0.00 | 0.00 | 56 | 1014.1 |
| 20260505023003 | 19 | 251 | 0.0 | 0.0 | 0.00 | 0.00 | 0.00 | 54 | 1014.0 |
| 20260505021600 | 19 | 251 | 0.0 | 0.0 | 0.00 | 0.00 | 0.00 | 54 | 1013.8 |
| 20260505020059 | 19 | 251 | 0.0 | 0.0 | 0.00 | 0.00 | 0.00 | 54 | 1013.7 |
| 20260505014621 | 19 | 251 | 0.0 | 0.0 | 0.00 | 0.00 | 0.00 | 54 | 1013.7 |
| 20260505013055 | 20 | 251 | 0.0 | 0.0 | 0.00 | 0.00 | 0.00 | 54 | 1013.4 |
| 20260505011551 | 20 | 251 | 0.0 | 0.0 | 0.00 | 0.00 | 0.00 | 53 | 1013.3 |
| 20260505010049 | 20 | 251 | 0.0 | 0.0 | 0.00 | 0.00 | 0.00 | 51 | 1013.1 |
| 20260505004535 | 21 | 251 | 0.0 | 0.0 | 0.00 | 0.00 | 0.00 | 51 | 1012.9 |
| 20260505003024 | 21 | 251 | 0.0 | 0.0 | 0.00 | 0.00 | 0.00 | 48 | 1012.5 |
| 20260505001503 | 23 | 251 | 0.0 | 0.0 | 0.00 | 0.00 | 0.00 | 44 | 1012.5 |
| 20260505000137 | 23 | 251 | 0.0 | 0.0 | 0.00 | 0.00 | 0.00 | 41 | 1012.4 |
| 20260504234603 | 25 | 251 | 0.0 | 0.0 | 0.00 | 0.00 | 0.00 | 37 | 1012.3 |
| 20260504233045 | 26 | 251 | 0.0 | 0.0 | 0.00 | 0.00 | 0.00 | 36 | 1012.2 |
| 20260504231539 | 26 | 251 | 0.0 | 0.0 | 0.00 | 0.00 | 0.00 | 35 | 1012.2 |
| 20260504230037 | 26 | 234 | 0.0 | 0.0 | 0.00 | 0.00 | 0.00 | 35 | 1012.2 |
| 20260504224535 | 26 | 327 | 0.0 | 0.0 | 0.00 | 0.00 | 0.00 | 36 | 1012.3 |
| 20260504223041 | 26 | 295 | 0.0 | 4.8 | 0.00 | 0.00 | 0.00 | 36 | 1012.3 |
| 20260504221535 | 27 | 276 | 0.0 | 4.8 | 0.00 | 0.00 | 0.00 | 34 | 1012.3 |
| 20260504220031 | 27 | 200 | 0.0 | 3.2 | 0.00 | 0.00 | 0.00 | 35 | 1012.3 |
| 20260504214511 | 27 | 298 | 0.0 | 0.0 | 0.00 | 0.00 | 0.00 | 34 | 1012.4 |
| 20260504213018 | 27 | 213 | 0.0 | 0.0 | 0.00 | 0.00 | 0.00 | 35 | 1012.4 |
| 20260504211546 | 27 | 332 | 0.0 | 6.4 | 0.00 | 0.00 | 0.00 | 34 | 1012.3 |
| 20260504210047 | 27 | 312 | 0.0 | 0.0 | 0.00 | 0.00 | 0.00 | 34 | 1012.5 |
| 20260504204527 | 27 | 340 | 0.0 | 0.0 | 0.00 | 0.00 | 0.00 | 33 | 1012.5 |
| 20260504203024 | 27 | 98 | 0.0 | 3.2 | 0.00 | 0.00 | 0.00 | 33 | 1012.7 |
| 20260504201504 | 27 | 261 | 0.0 | 6.4 | 0.00 | 0.00 | 0.00 | 33 | 1012.8 |
| 20260504200059 | 27 | 236 | 0.0 | 3.2 | 0.00 | 0.00 | 0.00 | 34 | 1012.8 |
| 20260504194549 | 26 | 261 | 0.0 | 6.4 | 0.00 | 0.00 | 0.00 | 35 | 1013.0 |
| 20260504193040 | 26 | 171 | 0.0 | 4.8 | 0.00 | 0.00 | 0.00 | 34 | 1013.3 |
| 20260504191519 | 26 | 133 | 0.0 | 4.8 | 0.00 | 0.00 | 0.00 | 35 | 1013.5 |
| 20260504190014 | 26 | 251 | 0.0 | 9.7 | 0.00 | 0.00 | 0.00 | 33 | 1013.8 |
| 20260504184513 | 26 | 327 | 0.0 | 3.2 | 0.00 | 0.00 | 0.00 | 34 | 1013.7 |
| 20260504183006 | 26 | 251 | 0.0 | 6.4 | 0.00 | 0.00 | 0.00 | 34 | 1014.0 |
| 20260504181606 | 25 | 237 | 0.0 | 1.6 | 0.00 | 0.00 | 0.00 | 32 | 1014.3 |
| 20260504180057 | 25 | 256 | 0.0 | 0.0 | 0.00 | 0.00 | 0.00 | 33 | 1014.3 |
| 20260504174601 | 24 | 129 | 0.0 | 1.6 | 0.00 | 0.00 | 0.00 | 34 | 1014.4 |
| 20260504173052 | 25 | 130 | 0.0 | 3.2 | 0.00 | 0.00 | 0.00 | 34 | 1014.6 |
| 20260504171526 | 25 | 307 | 0.0 | 1.6 | 0.00 | 0.00 | 0.00 | 36 | 1014.8 |
| 20260504100103 | 4 | 236 | 0.0 | 0.0 | 0.00 | 0.00 | 0.00 | 5 | 1016.8 |
| 20260504081557 | 5 | 236 | 0.0 | 0.0 | 0.00 | 0.00 | 0.00 | 24 | 1016.6 |